Time;durP1;ratioP1;P1;durP2;ratioP2;P2;SDS_P1;SDS_P2;PMS_P1;PMS_P2;Temp;Humidity;BMP_temperature;BMP_pressure;BME280_temperature;BME280_humidity;BME280_pressure;Samples;Min_cycle;Max_cycle;Signal;HPM_P1;HPM_P2
2023/01/19 00:01:18;;;;;;;8.52;1.38;;;;;;;4.80;100.00;100046.84;5050111;28;20175;-69
2023/01/19 00:03:43;;;;;;;4.88;1.27;;;;;;;4.78;100.00;100038.19;5051034;28;20025;-67
2023/01/19 00:06:08;;;;;;;12.57;1.30;;;;;;;4.92;100.00;100036.13;5050557;28;20029;-65
2023/01/19 00:08:34;;;;;;;3.72;1.05;;;;;;;4.96;100.00;100036.91;5050031;28;20099;-66
2023/01/19 00:11:00;;;;;;;6.55;1.20;;;;;;;4.96;100.00;100029.06;5050561;28;20487;-65
2023/01/19 00:13:26;;;;;;;8.10;1.15;;;;;;;4.96;100.00;100052.56;5050963;28;20109;-65
2023/01/19 00:15:51;;;;;;;7.80;1.23;;;;;;;4.73;100.00;100098.31;5050127;28;20047;-65
2023/01/19 00:18:17;;;;;;;7.45;0.70;;;;;;;4.61;100.00;100077.72;5050685;28;20029;-66
2023/01/19 00:20:44;;;;;;;4.38;1.00;;;;;;;4.58;100.00;100083.88;5048504;28;20056;-67
2023/01/19 00:23:09;;;;;;;4.78;0.98;;;;;;;4.60;100.00;100076.00;5047644;28;20033;-66
2023/01/19 00:25:41;;;;;;;4.93;1.10;;;;;;;4.49;100.00;100064.03;5049735;28;20024;-65
2023/01/19 00:28:10;;;;;;;1.27;0.50;;;;;;;4.51;100.00;100077.03;5049671;28;20040;-65
2023/01/19 00:30:36;;;;;;;1.55;0.38;;;;;;;4.57;100.00;100074.31;5049011;28;20397;-67
2023/01/19 00:33:01;;;;;;;3.25;0.57;;;;;;;4.48;100.00;100064.91;5049523;28;20144;-65
2023/01/19 00:35:26;;;;;;;5.38;0.80;;;;;;;4.38;100.00;100066.88;5050064;28;20136;-66
2023/01/19 00:37:52;;;;;;;3.92;0.68;;;;;;;4.40;100.00;100069.47;5049017;28;20025;-65
2023/01/19 00:40:17;;;;;;;3.08;0.57;;;;;;;4.32;100.00;100066.13;5048829;28;20044;-66
2023/01/19 00:42:43;;;;;;;3.13;0.82;;;;;;;4.37;100.00;100087.78;5049515;28;20108;-65
2023/01/19 00:45:22;;;;;;;8.18;0.88;;;;;;;4.42;100.00;100088.53;5047926;28;20434;-67
2023/01/19 00:47:49;;;;;;;;;;;;;;;4.46;100.00;100077.16;5049939;28;20104;-64
2023/01/19 00:50:15;;;;;;;13.07;1.40;;;;;;;4.38;100.00;100082.53;5049180;28;19919;-66
2023/01/19 00:52:42;;;;;;;4.00;0.80;;;;;;;4.34;100.00;100072.19;5048796;28;20029;-66
2023/01/19 00:55:10;;;;;;;9.48;1.25;;;;;;;4.27;100.00;100103.59;5048755;28;20017;-66
2023/01/19 00:57:36;;;;;;;3.42;0.70;;;;;;;4.23;100.00;100082.81;5049060;28;20055;-66
2023/01/19 01:00:05;;;;;;;5.03;0.70;;;;;;;4.29;100.00;100094.00;5048287;28;20017;-66
2023/01/19 01:02:30;;;;;;;4.88;0.80;;;;;;;4.29;100.00;100085.31;5029839;28;20590;-68
2023/01/19 01:04:56;;;;;;;10.15;0.70;;;;;;;4.30;100.00;100097.47;5048572;28;20040;-66
2023/01/19 01:07:21;;;;;;;9.05;1.08;;;;;;;4.35;100.00;100092.16;5047960;28;20074;-66
2023/01/19 01:09:47;;;;;;;10.20;1.30;;;;;;;4.27;100.00;100107.94;5049037;28;20025;-66
2023/01/19 01:12:12;;;;;;;13.55;1.55;;;;;;;4.31;100.00;100101.81;5030596;28;20074;-67
2023/01/19 01:14:37;;;;;;;7.03;1.38;;;;;;;4.33;100.00;100110.44;5030234;28;20114;-67
2023/01/19 01:17:03;;;;;;;6.00;1.17;;;;;;;4.27;100.00;100106.22;5048717;28;20503;-68
2023/01/19 01:19:28;;;;;;;4.80;1.10;;;;;;;4.37;100.00;100111.25;5048669;28;20017;-67
2023/01/19 01:21:54;;;;;;;7.55;1.00;;;;;;;4.29;100.00;100117.47;5047155;28;20060;-66
2023/01/19 01:24:20;;;;;;;7.65;1.30;;;;;;;4.22;100.00;100123.72;5048485;28;20029;-64
2023/01/19 01:26:45;;;;;;;4.65;0.80;;;;;;;4.21;100.00;100137.63;5047866;28;20482;-66
2023/01/19 01:29:11;;;;;;;11.52;0.93;;;;;;;4.21;100.00;100129.78;5029727;28;20033;-67
2023/01/19 01:31:36;;;;;;;12.13;1.17;;;;;;;4.03;100.00;100138.81;5046874;28;20484;-67
2023/01/19 01:34:01;;;;;;;3.55;0.85;;;;;;;4.15;100.00;100140.34;5045781;28;20037;-68
2023/01/19 01:36:30;;;;;;;11.63;1.10;;;;;;;3.93;100.00;100166.81;5047658;28;20036;-65
2023/01/19 01:38:56;;;;;;;2.53;0.65;;;;;;;3.73;100.00;100167.97;5047389;28;20021;-67
2023/01/19 01:41:21;;;;;;;8.48;0.95;;;;;;;3.51;100.00;100170.94;5047428;28;20041;-66
2023/01/19 01:43:50;;;;;;;4.03;1.23;;;;;;;3.50;100.00;100170.97;5047666;28;20029;-66
2023/01/19 01:46:16;;;;;;;4.90;0.70;;;;;;;3.40;100.00;100176.31;5047953;28;20044;-66
2023/01/19 01:48:46;;;;;;;3.38;0.45;;;;;;;3.44;100.00;100171.06;5047729;28;20017;-67
2023/01/19 01:51:37;;;;;;;7.35;0.60;;;;;;;3.39;100.00;100192.81;5013104;28;20021;-68
2023/01/19 01:54:08;;;;;;;2.83;0.70;;;;;;;3.36;100.00;100184.19;5046313;28;20037;-67
2023/01/19 01:56:39;;;;;;;6.50;0.77;;;;;;;3.41;100.00;100171.97;5047340;28;20032;-67
2023/01/19 01:59:07;;;;;;;7.00;0.50;;;;;;;3.36;100.00;100161.63;5028111;28;20033;-67
2023/01/19 02:04:17;;;;;;;3.78;0.70;;;;;;;3.54;100.00;100167.44;5047773;28;20060;-67
2023/01/19 02:14:56;;;;;;;6.47;0.77;;;;;;;3.67;100.00;100200.22;5050405;28;20120;-66
2023/01/19 02:17:21;;;;;;;3.63;0.93;;;;;;;3.73;100.00;100208.84;5068222;28;20107;-65
2023/01/19 02:19:47;;;;;;;3.97;0.63;;;;;;;3.67;100.00;100199.34;5068554;28;20040;-67
2023/01/19 02:22:19;;;;;;;3.65;0.95;;;;;;;3.68;100.00;100211.50;5065693;28;20098;-68
2023/01/19 02:24:44;;;;;;;4.55;1.00;;;;;;;3.53;100.00;100223.03;5049832;28;20454;-68
2023/01/19 02:27:11;;;;;;;8.15;0.75;;;;;;;3.41;100.00;100213.66;5048089;28;20032;-67
2023/01/19 02:29:36;;;;;;;5.72;0.75;;;;;;;3.49;100.00;100222.19;5048304;28;20032;-67
2023/01/19 02:32:03;;;;;;;3.20;0.68;;;;;;;3.49;100.00;100203.97;5066912;28;20028;-68
2023/01/19 02:34:28;;;;;;;4.03;0.90;;;;;;;3.38;100.00;100211.94;5067816;28;20060;-65
2023/01/19 02:37:00;;;;;;;4.65;1.58;;;;;;;3.39;100.00;100202.38;5049295;28;20036;-66
2023/01/19 02:39:30;;;;;;;4.00;0.63;;;;;;;3.37;100.00;100188.53;5049534;28;20032;-66
2023/01/19 02:41:56;;;;;;;;;;;;;;;3.50;100.00;100192.69;5032356;28;20032;-65
2023/01/19 02:44:22;;;;;;;2.25;0.50;;;;;;;3.52;100.00;100200.44;5048522;28;19995;-67
2023/01/19 02:46:47;;;;;;;8.77;1.42;;;;;;;3.57;100.00;100214.28;5066983;28;20116;-67
2023/01/19 02:49:13;;;;;;;2.55;1.08;;;;;;;3.57;100.00;100222.09;5065817;28;20478;-67
2023/01/19 02:51:38;;;;;;;4.13;0.30;;;;;;;3.53;100.00;100239.50;5066896;28;20033;-67
2023/01/19 02:54:03;;;;;;;7.15;0.90;;;;;;;3.41;100.00;100235.31;5067121;28;20028;-66
2023/01/19 02:56:47;;;;;;;6.78;0.98;;;;;;;3.49;100.00;100230.00;5066700;28;20032;-68
2023/01/19 02:59:18;;;;;;;5.88;1.15;;;;;;;3.42;100.00;100236.19;5048380;28;20029;-67
2023/01/19 03:02:21;;;;;;;7.18;1.33;;;;;;;3.54;100.00;100236.03;5032194;28;20115;-68
2023/01/19 03:05:05;;;;;;;4.30;1.15;;;;;;;3.63;100.00;100221.13;5065885;28;20067;-68
2023/01/19 03:08:04;;;;;;;7.57;0.98;;;;;;;3.66;100.00;100239.31;5031100;28;20472;-66
2023/01/19 03:10:39;;;;;;;;;;;;;;;3.75;100.00;100230.50;5049885;28;20021;-65
2023/01/19 03:13:13;;;;;;;2.75;0.73;;;;;;;3.74;100.00;100241.81;5070430;28;20594;-66
2023/01/19 03:15:54;;;;;;;3.28;0.90;;;;;;;3.66;100.00;100249.75;5070127;28;20031;-66
2023/01/19 03:18:23;;;;;;;4.45;1.05;;;;;;;3.65;100.00;100243.66;5052756;28;20028;-68
2023/01/19 03:20:52;;;;;;;5.05;1.10;;;;;;;3.68;100.00;100248.00;5051997;28;20020;-68
2023/01/19 03:23:18;;;;;;;4.90;0.80;;;;;;;3.71;100.00;100240.13;5053356;28;20041;-66
2023/01/19 03:25:46;;;;;;;2.88;0.80;;;;;;;3.74;100.00;100224.47;5070431;28;20324;-66
2023/01/19 03:28:13;;;;;;;9.20;0.90;;;;;;;3.71;100.00;100219.28;5052506;28;20031;-66
2023/01/19 03:30:45;;;;;;;8.80;1.17;;;;;;;3.59;100.00;100222.06;5052109;28;20585;-66
2023/01/19 03:33:15;;;;;;;8.50;1.30;;;;;;;3.72;100.00;100210.56;5052462;28;20434;-68
2023/01/19 03:35:47;;;;;;;7.18;0.80;;;;;;;3.71;100.00;100221.03;5036010;28;20087;-66
2023/01/19 03:38:18;;;;;;;11.00;1.10;;;;;;;3.69;100.00;100213.22;5070278;28;20024;-67
2023/01/19 03:40:44;;;;;;;4.88;1.02;;;;;;;3.66;100.00;100221.09;5052658;28;20584;-67
2023/01/19 03:43:10;;;;;;;6.05;1.10;;;;;;;3.52;100.00;100223.88;5064364;28;20058;-67
2023/01/19 03:45:37;;;;;;;6.57;1.42;;;;;;;3.51;100.00;100225.66;5050099;28;20033;-67
2023/01/19 03:48:03;;;;;;;7.55;1.13;;;;;;;3.53;100.00;100239.50;5051704;28;20039;-69
2023/01/19 03:50:29;;;;;;;5.97;0.77;;;;;;;3.39;100.00;100236.22;5051983;28;20051;-67
2023/01/19 03:53:04;;;;;;;6.00;0.85;;;;;;;3.32;100.00;100239.81;5070071;28;20111;-67
2023/01/19 03:55:30;;;;;;;10.27;1.33;;;;;;;3.42;100.00;100244.00;5068583;28;20021;-68
2023/01/19 03:57:55;;;;;;;4.10;0.85;;;;;;;3.48;100.00;100246.53;5069229;28;20035;-68
2023/01/19 04:00:20;;;;;;;5.50;1.10;;;;;;;3.46;100.00;100243.06;5068640;28;20036;-66
2023/01/19 04:02:46;;;;;;;12.93;1.73;;;;;;;3.53;100.00;100244.72;5068942;28;20024;-68
2023/01/19 04:05:11;;;;;;;8.15;1.45;;;;;;;3.57;100.00;100249.88;5067743;28;20536;-65
2023/01/19 04:07:36;;;;;;;15.55;2.10;;;;;;;3.66;100.00;100244.53;5069187;28;20858;-67
2023/01/19 04:10:02;;;;;;;12.85;1.75;;;;;;;3.76;100.00;100248.72;5068490;28;20510;-68
2023/01/19 04:12:27;;;;;;;7.88;1.70;;;;;;;3.81;100.00;100250.41;5068738;28;20040;-67
2023/01/19 04:14:53;;;;;;;15.32;1.52;;;;;;;3.88;100.00;100252.03;5068561;28;20478;-68
2023/01/19 04:17:18;;;;;;;17.20;1.95;;;;;;;3.89;100.00;100244.19;5069322;28;20346;-66
2023/01/19 04:19:44;;;;;;;21.98;2.22;;;;;;;3.99;100.00;100246.66;5069464;28;20490;-68
2023/01/19 04:22:09;;;;;;;16.17;1.98;;;;;;;4.06;100.00;100242.22;5069054;28;20029;-66
2023/01/19 04:24:34;;;;;;;14.85;1.95;;;;;;;4.10;100.00;100243.88;5067780;28;20031;-68
2023/01/19 04:27:00;;;;;;;21.52;2.15;;;;;;;4.15;100.00;100236.81;5069312;28;20004;-68
2023/01/19 04:29:25;;;;;;;17.35;1.95;;;;;;;4.26;100.00;100245.34;5068618;28;20441;-68
2023/01/19 04:31:50;;;;;;;21.08;2.10;;;;;;;4.28;100.00;100238.31;5069598;28;20440;-67
2023/01/19 04:34:16;;;;;;;11.18;1.67;;;;;;;4.36;100.00;100245.19;5069648;28;20688;-66
2023/01/19 04:36:41;;;;;;;16.45;2.60;;;;;;;4.41;100.00;100248.56;5069769;28;20466;-66
2023/01/19 04:39:08;;;;;;;12.77;2.67;;;;;;;4.36;100.00;100239.97;5069143;28;20024;-67
2023/01/19 04:41:33;;;;;;;22.80;3.30;;;;;;;4.41;100.00;100251.16;5069783;28;20028;-66
2023/01/19 04:43:59;;;;;;;20.23;2.38;;;;;;;4.51;100.00;100249.25;5038484;28;20514;-66
2023/01/19 04:46:24;;;;;;;18.02;2.80;;;;;;;4.51;100.00;100249.25;5030875;28;20025;-65
2023/01/19 04:48:50;;;;;;;15.93;2.20;;;;;;;4.51;100.00;100257.06;5048429;28;20032;-65
2023/01/19 04:51:15;;;;;;;23.40;2.53;;;;;;;4.57;100.00;100258.72;5049003;28;20049;-65
2023/01/19 04:53:40;;;;;;;15.80;2.45;;;;;;;4.53;100.00;100256.16;5049100;28;20666;-66
2023/01/19 04:56:06;;;;;;;21.45;2.58;;;;;;;4.61;100.00;100263.00;5049092;28;20025;-67
2023/01/19 04:58:31;;;;;;;19.63;2.20;;;;;;;4.52;100.00;100259.66;5048569;28;20040;-64
2023/01/19 05:00:56;;;;;;;21.60;2.63;;;;;;;4.59;100.00;100254.31;5066622;28;20027;-67
2023/01/19 05:03:22;;;;;;;21.67;2.88;;;;;;;4.59;100.00;100262.16;5066956;28;20033;-66
2023/01/19 05:05:47;;;;;;;15.70;2.85;;;;;;;4.61;100.00;100266.44;5049924;28;20024;-66
2023/01/19 05:08:12;;;;;;;16.63;2.08;;;;;;;4.57;100.00;100269.16;5064971;28;20017;-67
2023/01/19 05:10:38;;;;;;;11.55;2.45;;;;;;;4.53;100.00;100271.84;5068134;28;20044;-66
2023/01/19 05:13:04;;;;;;;16.65;2.47;;;;;;;4.60;100.00;100276.94;5067758;28;20566;-67
2023/01/19 05:15:29;;;;;;;19.35;2.83;;;;;;;4.55;100.00;100275.25;5068760;28;20044;-66
2023/01/19 05:17:56;;;;;;;24.27;2.42;;;;;;;4.51;100.00;100273.59;5067353;28;20054;-66
2023/01/19 05:20:22;;;;;;;16.77;2.45;;;;;;;4.63;100.00;100272.50;5064480;28;20035;-67
2023/01/19 05:22:49;;;;;;;12.27;2.88;;;;;;;4.68;100.00;100278.53;5051272;28;20013;-65
2023/01/19 05:25:14;;;;;;;17.00;2.60;;;;;;;4.76;100.00;100280.97;5067991;28;20028;-66
2023/01/19 05:27:40;;;;;;;26.17;3.17;;;;;;;4.79;100.00;100280.91;5068458;28;20024;-66
2023/01/19 05:30:06;;;;;;;14.43;2.92;;;;;;;4.78;100.00;100278.31;5067095;28;20104;-65
2023/01/19 05:32:31;;;;;;;15.55;2.53;;;;;;;4.73;100.00;100281.03;5049560;28;20021;-65
2023/01/19 05:34:56;;;;;;;14.63;2.67;;;;;;;4.73;100.00;100288.84;5066907;28;20455;-65
2023/01/19 05:37:22;;;;;;;12.73;2.30;;;;;;;4.68;100.00;100285.47;5068341;28;20021;-67
2023/01/19 05:39:47;;;;;;;20.58;2.55;;;;;;;4.60;100.00;100292.59;5067887;28;20025;-68
2023/01/19 05:42:12;;;;;;;17.40;2.10;;;;;;;4.68;100.00;100290.69;5066290;28;20032;-67
2023/01/19 05:44:38;;;;;;;20.10;2.25;;;;;;;4.74;100.00;100293.19;5066881;28;20020;-65
2023/01/19 05:47:04;;;;;;;13.85;1.92;;;;;;;4.73;100.00;100293.22;5067957;28;20028;-65
2023/01/19 05:49:29;;;;;;;18.10;2.60;;;;;;;4.69;100.00;100295.03;5068120;28;20050;-66
2023/01/19 05:51:54;;;;;;;17.33;2.22;;;;;;;4.70;100.00;100295.88;5066306;28;20462;-65
2023/01/19 05:54:20;;;;;;;17.38;2.42;;;;;;;4.76;100.00;100301.84;5069459;28;20117;-65
2023/01/19 05:56:45;;;;;;;15.43;1.67;;;;;;;4.77;100.00;100310.56;5068556;28;20481;-68
2023/01/19 05:59:11;;;;;;;27.38;3.20;;;;;;;4.83;100.00;100314.78;5068671;28;20056;-67
2023/01/19 06:01:37;;;;;;;12.30;1.65;;;;;;;4.93;100.00;100314.59;5067894;28;20056;-64
2023/01/19 06:04:03;;;;;;;17.85;2.00;;;;;;;4.96;100.00;100308.44;5068457;28;20078;-65
2023/01/19 06:06:28;;;;;;;15.13;2.05;;;;;;;4.93;100.00;100316.34;5068653;28;20478;-65
2023/01/19 06:08:54;;;;;;;23.20;2.28;;;;;;;4.87;100.00;100314.72;5070113;28;20031;-65
2023/01/19 06:11:20;;;;;;;18.45;2.75;;;;;;;4.80;100.00;100318.31;5070001;28;20021;-69
2023/01/19 06:13:46;;;;;;;16.90;2.33;;;;;;;4.78;100.00;100313.13;5070565;28;20090;-66
2023/01/19 06:16:11;;;;;;;11.10;2.45;;;;;;;4.73;100.00;100312.34;5070419;28;20024;-65
2023/01/19 06:18:37;;;;;;;28.00;3.50;;;;;;;4.67;100.00;100326.38;5070069;28;20021;-66
2023/01/19 06:21:04;;;;;;;22.65;3.17;;;;;;;4.60;100.00;100324.75;5068207;28;20071;-65
2023/01/19 06:23:31;;;;;;;21.85;3.03;;;;;;;4.64;100.00;100330.78;5068542;28;20036;-66
2023/01/19 06:25:56;;;;;;;19.00;3.03;;;;;;;4.60;100.00;100343.03;5068760;28;20432;-66
2023/01/19 06:28:22;;;;;;;23.80;3.55;;;;;;;4.64;100.00;100333.41;5067106;28;20116;-67
2023/01/19 06:30:49;;;;;;;27.00;2.95;;;;;;;4.65;100.00;100336.00;5050391;28;20036;-66
2023/01/19 06:33:15;;;;;;;27.83;2.80;;;;;;;4.66;100.00;100357.72;5067167;28;20378;-66
2023/01/19 06:35:44;;;;;;;15.57;2.50;;;;;;;4.70;100.00;100354.19;5068099;28;20028;-67
2023/01/19 06:38:12;;;;;;;14.65;2.25;;;;;;;4.74;100.00;100353.22;5067439;28;20599;-65
2023/01/19 06:40:37;;;;;;;10.30;2.13;;;;;;;4.71;100.00;100352.41;5067362;28;20020;-65
2023/01/19 06:43:03;;;;;;;13.32;1.92;;;;;;;4.77;100.00;100370.59;5065562;28;20030;-65
2023/01/19 06:45:28;;;;;;;11.10;2.22;;;;;;;4.76;100.00;100361.03;5067183;28;20025;-66
2023/01/19 06:47:53;;;;;;;14.80;2.05;;;;;;;4.74;100.00;100378.47;5066568;28;20485;-65
2023/01/19 06:50:19;;;;;;;17.05;1.88;;;;;;;4.82;100.00;100378.34;5067529;28;20025;-66
2023/01/19 06:52:44;;;;;;;14.60;1.85;;;;;;;4.78;100.00;100388.84;5068567;28;20479;-65
2023/01/19 06:55:10;;;;;;;16.23;2.63;;;;;;;4.70;100.00;100384.63;5067100;28;20555;-66
2023/01/19 06:57:39;;;;;;;12.38;1.80;;;;;;;4.73;100.00;100406.31;5069048;28;20463;-66
2023/01/19 07:00:07;;;;;;;18.10;2.03;;;;;;;4.90;100.00;100402.56;5067528;28;20041;-67
2023/01/19 07:02:35;;;;;;;12.65;2.13;;;;;;;4.99;100.00;100394.56;5067841;28;20028;-65
2023/01/19 07:05:00;;;;;;;16.00;2.20;;;;;;;4.95;100.00;100400.75;5068161;28;20481;-68
2023/01/19 07:07:26;;;;;;;12.75;2.53;;;;;;;4.87;100.00;100419.13;5066967;28;20025;-63
2023/01/19 07:09:51;;;;;;;15.70;2.08;;;;;;;4.91;100.00;100404.28;5066722;28;20664;-64
2023/01/19 07:12:17;;;;;;;17.20;1.95;;;;;;;4.98;100.00;100400.69;5067280;28;20049;-66
2023/01/19 07:14:42;;;;;;;8.93;1.88;;;;;;;4.99;100.00;100410.22;5066267;28;20017;-66
2023/01/19 07:17:07;;;;;;;7.55;1.60;;;;;;;5.01;100.00;100421.53;5067080;28;20052;-65
2023/01/19 07:19:34;;;;;;;9.25;1.88;;;;;;;4.93;100.00;100423.38;5066967;28;20025;-66
2023/01/19 07:22:00;;;;;;;9.50;2.13;;;;;;;5.00;100.00;100422.41;5053586;28;20485;-65
2023/01/19 07:24:25;;;;;;;13.75;2.28;;;;;;;5.03;100.00;100427.56;5065907;28;20025;-66
2023/01/19 07:26:50;;;;;;;10.15;2.00;;;;;;;4.99;100.00;100423.28;5066034;28;20468;-65
2023/01/19 07:29:16;;;;;;;15.57;2.33;;;;;;;4.89;100.00;100426.94;5065681;28;20056;-67
2023/01/19 07:31:41;;;;;;;11.20;1.52;;;;;;;4.92;100.00;100435.59;5066339;28;20082;-65
2023/01/19 07:34:06;;;;;;;12.10;1.75;;;;;;;4.88;100.00;100431.28;5066469;28;20104;-65
2023/01/19 07:36:31;;;;;;;14.90;1.80;;;;;;;4.85;100.00;100440.94;5048600;28;20100;-66
2023/01/19 07:38:57;;;;;;;16.33;2.10;;;;;;;4.89;100.00;100442.63;5066392;28;20021;-66
2023/01/19 07:41:22;;;;;;;14.30;2.30;;;;;;;4.89;100.00;100453.06;5066583;28;20107;-65
2023/01/19 07:43:50;;;;;;;12.00;2.20;;;;;;;4.84;100.00;100457.50;5062937;28;20056;-64
2023/01/19 07:46:15;;;;;;;5.63;1.35;;;;;;;4.82;100.00;100448.81;5032910;28;20052;-66
2023/01/19 07:48:43;;;;;;;14.77;3.10;;;;;;;4.88;100.00;100456.56;5065456;28;20423;-67
2023/01/19 07:51:10;;;;;;;21.33;3.42;;;;;;;4.90;100.00;100460.88;5066042;28;20020;-66
2023/01/19 07:53:36;;;;;;;18.50;2.28;;;;;;;4.82;100.00;100472.31;5048802;28;20028;-66
2023/01/19 07:56:01;;;;;;;14.25;2.25;;;;;;;4.76;100.00;100468.06;5064161;28;20035;-66
2023/01/19 07:58:26;;;;;;;12.73;1.60;;;;;;;4.79;100.00;100473.25;5068394;28;20060;-65
2023/01/19 08:00:52;;;;;;;8.30;1.88;;;;;;;4.76;100.00;100474.13;5050737;28;20059;-65
2023/01/19 08:03:17;;;;;;;17.80;2.92;;;;;;;4.74;100.00;100477.66;5068524;28;20070;-64
2023/01/19 08:05:44;;;;;;;13.00;3.03;;;;;;;4.75;100.00;100492.41;5058486;28;20045;-63
2023/01/19 08:08:11;;;;;;;9.95;1.80;;;;;;;4.68;100.00;100495.16;5059040;28;20080;-64
2023/01/19 08:10:37;;;;;;;12.38;2.15;;;;;;;4.67;100.00;100498.63;5056846;28;20079;-66
2023/01/19 08:13:02;;;;;;;11.20;2.00;;;;;;;4.66;100.00;100494.31;5055770;28;20458;-65
2023/01/19 08:15:27;;;;;;;9.40;1.83;;;;;;;4.68;100.00;100507.31;5058639;28;20115;-64
2023/01/19 08:18:01;;;;;;;11.82;1.80;;;;;;;4.68;100.00;100507.31;5057171;28;20020;-65
2023/01/19 08:20:27;;;;;;;15.27;2.35;;;;;;;4.67;100.00;100513.44;5060047;28;20024;-67
2023/01/19 08:23:01;;;;;;;8.18;1.67;;;;;;;4.60;100.00;100509.19;5058945;28;20107;-65
2023/01/19 08:25:37;;;;;;;7.10;1.92;;;;;;;4.72;100.00;100503.78;5058308;28;20082;-65
2023/01/19 08:28:04;;;;;;;15.82;2.05;;;;;;;4.77;100.00;100511.53;5061454;28;20056;-64
2023/01/19 08:30:30;;;;;;;10.98;2.28;;;;;;;4.74;100.00;100511.59;5056245;28;20025;-64
2023/01/19 08:33:02;;;;;;;9.70;1.88;;;;;;;4.70;100.00;100520.34;5058297;28;20033;-66
2023/01/19 08:35:29;;;;;;;15.57;1.80;;;;;;;4.58;100.00;100526.63;5058622;28;20028;-65
2023/01/19 08:37:54;;;;;;;8.98;1.85;;;;;;;4.59;100.00;100531.81;5058923;28;20519;-63
2023/01/19 08:40:20;;;;;;;7.10;2.03;;;;;;;4.51;100.00;100539.75;5060783;28;20052;-63
2023/01/19 08:42:45;;;;;;;17.30;2.45;;;;;;;4.47;100.00;100530.22;5055390;28;20490;-68
2023/01/19 08:45:11;;;;;;;16.25;1.90;;;;;;;4.44;100.00;100535.50;5058367;28;20028;-65
2023/01/19 08:47:36;;;;;;;7.97;1.88;;;;;;;4.42;100.00;100532.91;5058057;28;20032;-64
2023/01/19 08:50:01;;;;;;;10.40;1.95;;;;;;;4.47;100.00;100538.06;5040217;28;20078;-64
2023/01/19 08:52:28;;;;;;;9.73;1.90;;;;;;;4.48;100.00;100534.56;5059040;28;20028;-65
2023/01/19 08:54:53;;;;;;;12.48;2.17;;;;;;;4.54;100.00;100537.09;5054639;28;20029;-65
2023/01/19 08:57:18;;;;;;;11.43;1.67;;;;;;;4.53;100.00;100532.78;5056579;28;20383;-64
2023/01/19 08:59:46;;;;;;;14.85;1.95;;;;;;;4.54;100.00;100533.59;5059818;28;20013;-64
2023/01/19 09:02:11;;;;;;;10.32;1.98;;;;;;;4.57;100.00;100540.56;5060448;28;20469;-65
2023/01/19 09:04:36;;;;;;;8.43;1.48;;;;;;;4.62;100.00;100537.00;5054529;28;21474;-64
2023/01/19 09:07:02;;;;;;;6.75;1.63;;;;;;;4.59;100.00;100536.16;5055377;28;20037;-64
2023/01/19 09:09:27;;;;;;;14.07;3.08;;;;;;;4.60;100.00;100540.50;5058053;28;20635;-67
2023/01/19 09:11:54;;;;;;;6.75;1.30;;;;;;;4.62;100.00;100544.81;5057746;28;20064;-65
2023/01/19 09:14:20;;;;;;;6.18;1.58;;;;;;;4.66;100.00;100548.22;5058299;28;20100;-65
2023/01/19 09:16:45;;;;;;;9.02;1.58;;;;;;;4.69;100.00;100553.41;5060047;28;20638;-64
2023/01/19 09:19:12;;;;;;;12.93;1.92;;;;;;;4.72;100.00;100550.75;5062338;28;20032;-65
2023/01/19 09:21:38;;;;;;;10.40;1.73;;;;;;;4.78;100.00;100557.63;5056918;28;20479;-64
2023/01/19 09:24:03;;;;;;;4.03;1.30;;;;;;;4.82;100.00;100566.31;5058265;28;20028;-64
2023/01/19 09:26:29;;;;;;;12.27;1.42;;;;;;;4.83;100.00;100562.81;5059895;28;20467;-64
2023/01/19 09:28:54;;;;;;;13.45;2.30;;;;;;;4.97;100.00;100563.44;5061977;28;20021;-65
2023/01/19 09:31:20;;;;;;;6.28;1.90;;;;;;;5.04;100.00;100569.47;5044475;28;20017;-65
2023/01/19 09:33:45;;;;;;;17.30;2.47;;;;;;;5.09;100.00;100572.00;5062373;28;20111;-65
2023/01/19 09:36:10;;;;;;;8.73;2.05;;;;;;;5.16;100.00;100576.25;5066735;28;20538;-64
2023/01/19 09:38:37;;;;;;;8.90;1.35;;;;;;;5.15;100.00;100571.91;5066800;28;20628;-65
2023/01/19 09:41:03;;;;;;;15.23;2.00;;;;;;;5.16;100.00;100582.34;5066603;28;20079;-65
2023/01/19 09:43:44;;;;;;;8.05;1.73;;;;;;;5.30;100.00;100581.25;5064822;28;20048;-64
2023/01/19 09:46:13;;;;;;;7.15;1.80;;;;;;;5.34;100.00;100579.44;5067253;28;20056;-64
2023/01/19 09:48:44;;;;;;;15.90;1.80;;;;;;;5.42;100.00;100582.81;5050065;28;20632;-64
2023/01/19 09:51:22;;;;;;;12.50;1.75;;;;;;;5.48;100.00;100580.06;5049651;28;20032;-65
2023/01/19 09:53:54;;;;;;;11.65;1.80;;;;;;;5.41;98.84;100583.69;5066988;28;20036;-66
2023/01/19 09:56:20;;;;;;;13.10;1.40;;;;;;;5.53;98.44;100593.94;5068898;28;20024;-64
2023/01/19 09:58:47;;;;;;;17.75;2.00;;;;;;;5.51;97.83;100593.09;5066132;28;20048;-65
2023/01/19 10:01:50;;;;;;;9.40;1.40;;;;;;;5.50;97.38;100600.94;5067930;28;20025;-66
2023/01/19 10:04:28;;;;;;;9.77;2.20;;;;;;;5.51;95.08;100598.31;5066084;28;20115;-66
2023/01/19 10:07:03;;;;;;;8.10;1.45;;;;;;;5.65;93.64;100598.09;5039409;28;20101;-62
2023/01/19 10:09:34;;;;;;;8.95;1.27;;;;;;;5.69;95.08;100596.31;5049985;28;20032;-65
2023/01/19 10:12:20;;;;;;;6.50;1.50;;;;;;;5.78;95.00;100609.19;5049703;28;20038;-64
2023/01/19 10:14:57;;;;;;;7.05;1.33;;;;;;;5.66;90.07;100612.88;5033764;28;20024;-63
2023/01/19 10:17:44;;;;;;;11.65;1.67;;;;;;;5.68;89.25;100607.63;5068061;28;20031;-65
2023/01/19 10:20:24;;;;;;;2.70;0.82;;;;;;;5.79;88.14;100613.56;5031476;28;20032;-63
2023/01/19 10:22:50;;;;;;;7.68;0.90;;;;;;;5.75;88.04;100622.31;5048665;28;20020;-64
2023/01/19 10:25:22;;;;;;;6.13;0.98;;;;;;;5.94;88.01;100614.16;5067616;28;20032;-65
2023/01/19 10:27:47;;;;;;;6.45;1.20;;;;;;;5.98;88.46;100607.09;5049285;28;20032;-65
2023/01/19 10:30:25;;;;;;;5.15;1.50;;;;;;;6.10;88.63;100619.13;5067130;28;20557;-65
2023/01/19 10:32:50;;;;;;;7.28;1.13;;;;;;;6.01;89.79;100618.38;5067617;28;20028;-65
2023/01/19 10:35:23;;;;;;;5.55;1.40;;;;;;;5.95;91.09;100623.72;5050368;28;20837;-65
2023/01/19 10:37:56;;;;;;;8.40;1.23;;;;;;;5.87;90.28;100615.16;5067764;28;20021;-65
2023/01/19 10:40:26;;;;;;;2.95;0.90;;;;;;;5.75;89.10;100632.78;5049032;28;20610;-65
2023/01/19 10:42:52;;;;;;;11.23;1.50;;;;;;;5.59;89.38;100626.06;5065872;28;20052;-65
2023/01/19 10:45:20;;;;;;;4.32;1.05;;;;;;;5.64;89.28;100621.66;5067648;28;20336;-63
2023/01/19 10:47:47;;;;;;;10.80;1.08;;;;;;;5.61;89.78;100626.91;5067094;28;20272;-64
2023/01/19 10:50:22;;;;;;;8.88;0.82;;;;;;;5.73;88.23;100623.22;5066682;28;20023;-64
2023/01/19 10:52:53;;;;;;;9.00;1.20;;;;;;;5.80;88.02;100619.63;5049335;28;20331;-62
2023/01/19 10:55:28;;;;;;;5.90;1.20;;;;;;;5.95;88.22;100618.50;5066786;28;20029;-64
2023/01/19 10:57:53;;;;;;;5.45;1.08;;;;;;;5.95;86.29;100613.25;5066372;28;20099;-63
2023/01/19 11:00:36;;;;;;;2.30;1.02;;;;;;;5.97;85.69;100621.06;5067494;28;20163;-66
2023/01/19 11:03:03;;;;;;;2.58;0.82;;;;;;;5.96;84.71;100616.75;5064253;28;20471;-65
2023/01/19 11:05:31;;;;;;;5.82;1.45;;;;;;;6.05;85.09;100622.69;5066977;28;20392;-64
2023/01/19 11:07:56;;;;;;;5.43;1.55;;;;;;;6.04;85.10;100617.50;5063821;28;20036;-64
2023/01/19 11:10:24;;;;;;;8.48;1.10;;;;;;;6.04;84.37;100617.50;5065757;28;20025;-65
2023/01/19 11:13:12;;;;;;;5.72;0.90;;;;;;;5.92;83.75;100624.66;5065390;28;20074;-65
2023/01/19 11:15:52;;;;;;;3.60;0.73;;;;;;;5.98;83.03;100620.19;5031390;28;20036;-68
2023/01/19 11:18:29;;;;;;;2.65;0.82;;;;;;;6.05;82.92;100629.69;5049214;28;20032;-65
2023/01/19 11:21:06;;;;;;;3.33;1.08;;;;;;;6.00;82.57;100636.72;5065558;28;20086;-66
2023/01/19 11:23:36;;;;;;;7.57;0.93;;;;;;;6.06;82.88;100626.19;5048512;28;20028;-63
2023/01/19 11:26:04;;;;;;;6.50;1.20;;;;;;;5.95;81.65;100621.09;5048152;28;20031;-63
2023/01/19 11:28:36;;;;;;;6.90;1.10;;;;;;;5.99;82.92;100633.22;5065781;28;20017;-65
2023/01/19 11:31:19;;;;;;;9.93;1.42;;;;;;;6.11;84.75;100621.72;5066272;28;20060;-63
2023/01/19 11:33:50;;;;;;;3.95;1.10;;;;;;;6.04;85.40;100623.59;5052159;28;20025;-64
2023/01/19 11:36:17;;;;;;;3.80;0.98;;;;;;;6.07;83.06;100613.06;5071081;28;20033;-65
2023/01/19 11:38:44;;;;;;;5.53;0.98;;;;;;;6.11;82.37;100626.09;5070628;28;20052;-64